Details From HTMW - Mwanza
To HRYR - Kigali Intl
Flight Number -
Tags Generated
Created
Modified
Stats Distance 170 nm / 315 km
Max Altitude 0 ft / 0 m
Waypoints 2
Social Downloads 0
Likes 0
Share VATSIM

Download

Looking for another format? Having issues loading an existing format? Contact us
Advertisement - Login to hide

Notes

Generated

Route

HTMW HRYR

ID Type Via Altitude Latitude Longitude Leg Dist Tot Dist Heading (true) Name
O HTMW APT - 0 ft / 0 m -2.43823˚ 32.92012˚ - 0 nm - -
O HRYR APT - 0 ft / 0 m -1.96590˚ 30.12394˚ 170 nm 170 nm 280° / 280° -

Altitude Profile

Advertisement - Login to hide

Weather


0- 5 10 15 20 25 30 35+ Temperature / ° C

Clouds and Precipitation
Forecast for 2017-12-14 00:00 UTC. Updated an hour ago

Ground ~20,000 ft ~40,000 ft Winds

HTMW

Details ICAO HTMW (MWZ)
Name MWANZA
Region Tanzania
Timezone Africa/Dar_es_Salaam (UTC+3.0)
Stats Elevation 3,763 ft / 1,147 m (AMSL)
Location -2.444485° 32.932665°
Runways 1
Magnetic Variation 0.866° E

METAR

HTMW 132000Z 00000KT 9999 FEW022 SCT100 22/19 Q1015 NOSIG

Decode

TAF

HTMW 131100Z 1312/1412 28010KT 9999 FEW026 FEW027CB BECMG 1316/1318 00000KT BECMG 1401/1403 12010KT FEW020 FEW021 SCT090

Decode

Departure Runways

ID Width Length Bearing (true) Bearing (mag) Surface Threshold Offset Overrun Length
12 148 ft / 45 m 10,223 ft / 3,116 m 116.54° 115.67° Asphalt 300 ft / 91 m 615 ft / 187 m
30 148 ft / 45 m 10,223 ft / 3,116 m 296.54° 295.67° Asphalt 0 ft / 0 m 0 ft / 0 m

HRYR

Details ICAO HRYR (KGL)
Name KIGALI INTL
Region Rwanda
Timezone Africa/Kigali (UTC+2.0)
Stats Elevation 4,859 ft / 1,481 m (AMSL)
Location -1.968628° 30.139450°
Runways 1
Magnetic Variation 1.204° E

METAR

Not found

TAF

TAF HRYR 131700Z 1318/1424 07006KT 9999 FEW025 SCT100 FM 132100 33004KT FEW026 SCT100 BECMG 1403/1406 VRB03KT 8000 SCT025 SCT100 FM 140900 16007KT 9999 BKN025 TEMPO 1411/1416 12014KT TS FEW023CB SCT025 FM 142000 32004KT SCT026

Decode

Destination Runways

ID Width Length Bearing (true) Bearing (mag) Surface Threshold Offset Overrun Length
10 148 ft / 45 m 11,485 ft / 3,501 m 99.97° 98.77° Asphalt 0 ft / 0 m 66 ft / 20 m
28 148 ft / 45 m 11,485 ft / 3,501 m 279.97° 278.77° Asphalt 705 ft / 215 m 66 ft / 20 m

Approach Navaids

Runway Type Ident Frequency Range Bearing (true) Bearing (mag) Slope Elevation
28 Localiser IKNB 109.90 MHz 18 nm / 33 km 279.95° 278.75° - 4,859 ft / 1,481 m (AMSL)
28 Glidescope IKNB 109.90 MHz 10 nm / 19 km 279.97° 278.77° 3.00° 4,859 ft / 1,481 m (AMSL)